Data for 11/11/2007

Time Sea-Level Adjusted Pressure Absolute Pressure Temperature Relative Humidity Dew Point   
(mb) (inHg) (mb) (inHg) (C) (F) (%) (C) (F)
00:05 1013 29.91 842 24.86 4.9 40.9 53 -3.9 25
00:10 1013 29.91 842 24.86 4.8 40.7 57 -2.9 26.7
00:15 1013 29.91 842 24.86 4.7 40.4 59 -2.6 27.3
00:20 1013 29.91 842 24.86 4.3 39.7 56 -3.6 25.5
00:25 1013 29.91 842 24.86 4 39.3 54 -4.5 23.8
00:30 1013 29.91 842 24.86 4.4 39.9 54 -4.1 24.6
00:35 1013 29.91 842 24.86 4.5 40.1 52 -4.5 23.9
00:40 1013 29.91 842 24.86 4.6 40.3 50 -4.9 23.2
00:45 1013 29.91 842 24.86 4.7 40.5 52 -4.3 24.2
00:50 1013 29.91 842 24.86 4.8 40.6 48 -5.3 22.5
00:55 1013 29.91 842 24.86 4.8 40.6 50 -4.7 23.5
01:00 1013 29.91 842 24.86 4.8 40.6 48 -5.3 22.5
01:05 1013 29.91 842 24.86 4.8 40.7 48 -5.1 22.8
01:10 1013 29.91 842 24.86 4.9 40.8 52 -4.1 24.5
01:15 1013 29.91 842 24.86 4.4 40 58 -3.1 26.4
01:20 1013 29.91 842 24.86 4.1 39.3 61 -2.8 26.9
01:25 1013 29.91 842 24.86 3.8 38.9 61 -2.9 26.8
01:30 1013 29.91 842 24.86 3.7 38.6 57 -4.1 24.6
01:35 1013 29.91 842 24.86 3.8 38.8 57 -3.9 25
01:40 1013 29.91 842 24.86 3.8 38.9 62 -2.8 26.9
01:45 1013 29.91 842 24.86 3.7 38.7 57 -4 24.8
01:50 1013 29.91 842 24.86 3.9 39 54 -4.6 23.6
01:55 1013 29.91 842 24.86 3.9 39 58 -3.5 25.6
02:00 1013 29.91 842 24.86 3.7 38.7 59 -3.7 25.4
02:05 1013 29.91 842 24.86 3.5 38.3 61 -3.4 25.9
02:10 1013 29.91 842 24.86 3.3 37.9 61 -3.5 25.6
02:15 1013 29.91 842 24.86 3.2 37.8 63 -3.1 26.4
02:20 1013 29.91 842 24.86 3.3 37.9 63 -3.1 26.4
02:25 1013 29.91 842 24.86 3.5 38.2 58 -3.9 24.9
02:30 1013 29.91 842 24.86 3.6 38.5 65 -2.3 27.9
02:35 1013 29.91 842 24.86 3.3 38 66 -2.3 27.8
02:40 1013 29.91 842 24.86 3.1 37.5 69 -2.2 28.1
02:45 1013 29.91 842 24.86 2.9 37.1 69 -2.3 27.9
02:50 1013 29.91 842 24.86 2.7 36.8 69 -2.5 27.5
02:55 1013 29.91 842 24.86 2.4 36.4 68 -2.8 26.9
03:00 1013 29.91 842 24.86 2.4 36.3 70 -2.6 27.3
03:05 1013 29.91 842 24.86 2.4 36.3 69 -2.7 27.1
03:10 1013 29.91 842 24.86 2.5 36.5 69 -2.7 27.2
03:15 1013 29.91 842 24.86 2.6 36.7 68 -2.6 27.3
03:20 1013 29.91 842 24.86 2.7 36.9 69 -2.4 27.6
03:25 1013 29.91 842 24.86 2.7 36.9 70 -2.2 28
03:30 1013 29.91 842 24.86 2.7 36.8 70 -2.2 28.1
03:35 1013 29.91 842 24.86 2.7 36.9 72 -1.8 28.7
03:40 1013 29.91 842 24.86 2.6 36.7 74 -1.5 29.3
03:45 1013 29.91 842 24.86 2.6 36.7 75 -1.4 29.6
03:50 1013 29.91 842 24.86 2.4 36.3 77 -1.2 29.9
03:55 1013 29.91 842 24.86 2.3 36.1 78 -1.3 29.7
04:00 1013 29.91 842 24.86 2.3 36.2 77 -1.4 29.6
04:05 1013 29.91 842 24.86 2.3 36.1 78 -1.2 29.9
04:10 1013 29.91 842 24.86 2.2 36 78 -1.3 29.7
04:15 1013 29.91 842 24.86 2.2 35.9 78 -1.3 29.7
04:20 1013 29.91 842 24.86 2.2 35.9 78 -1.3 29.7
04:25 1013 29.91 842 24.86 2.2 35.9 77 -1.4 29.6
04:30 1013 29.91 842 24.86 2.3 36.2 76 -1.4 29.5
04:35 1013 29.91 842 24.86 2.3 36.2 76 -1.4 29.4
04:40 1013 29.91 842 24.86 2.3 36.1 76 -1.6 29.1
04:45 1013 29.91 842 24.86 2.3 36.1 76 -1.5 29.2
04:50 1013 29.91 842 24.86 2.2 36 76 -1.5 29.2
04:55 1013 29.91 843 24.89 2.1 35.9 76 -1.7 29
05:00 1013 29.91 843 24.89 2.1 35.9 76 -1.7 28.9
05:05 1013 29.91 843 24.89 2.1 35.8 76 -1.7 28.9
05:10 1013 29.91 843 24.89 2 35.5 76 -1.9 28.6
05:15 1013 29.91 843 24.89 1.9 35.4 76 -2 28.5
05:20 1013 29.91 843 24.89 2 35.5 75 -2 28.3
05:25 1013 29.91 843 24.89 1.9 35.5 76 -1.9 28.6
05:30 1013 29.91 843 24.89 1.9 35.4 76 -1.9 28.6
05:35 1013 29.91 843 24.89 1.7 35.1 77 -1.8 28.7
05:40 1014 29.94 843 24.89 1.6 35 78 -1.9 28.6
05:45 1013 29.91 843 24.89 1.5 34.8 77 -2 28.4
05:50 1014 29.94 843 24.89 1.6 34.8 77 -2 28.4
05:55 1014 29.94 843 24.89 1.4 34.6 77 -2.1 28.1
06:00 1014 29.94 843 24.89 1.4 34.5 76 -2.4 27.7
06:05 1014 29.94 843 24.89 1.2 34.2 76 -2.6 27.4
06:10 1014 29.94 843 24.89 1 33.9 75 -2.8 26.9
06:15 1014 29.94 843 24.89 1 33.8 77 -2.6 27.4
06:20 1013 29.91 843 24.89 0.9 33.6 78 -2.4 27.6
06:25 1013 29.91 843 24.89 0.9 33.5 78 -2.6 27.3
06:30 1013 29.91 843 24.89 0.9 33.7 76 -2.8 26.9
06:35 1013 29.91 843 24.89 1 33.8 75 -3 26.6
06:40 1013 29.91 843 24.89 1.1 34 73 -3.2 26.2
06:45 1013 29.91 842 24.86 1.3 34.3 72 -3.3 26.1
06:50 1013 29.91 842 24.86 1.3 34.3 71 -3.4 25.9
06:55 1013 29.91 842 24.86 1.4 34.4 72 -3.1 26.5
07:00 1013 29.91 842 24.86 1.4 34.4 72 -3.2 26.3
07:05 1013 29.91 842 24.86 1.3 34.3 73 -3 26.5
07:10 1013 29.91 842 24.86 1.3 34.3 73 -3.1 26.4
07:15 1013 29.91 842 24.86 1.3 34.3 72 -3.2 26.3
07:20 1013 29.91 842 24.86 1.4 34.4 74 -2.7 27.1
07:25 1013 29.91 842 24.86 1.3 34.3 74 -2.9 26.9
07:30 1013 29.91 842 24.86 1.4 34.5 73 -2.9 26.7
07:35 1013 29.91 842 24.86 1.3 34.4 74 -2.8 27
07:40 1013 29.91 842 24.86 1.3 34.4 73 -3 26.6
07:45 1013 29.91 842 24.86 1.4 34.6 71 -3.2 26.3
07:50 1013 29.91 842 24.86 1.5 34.8 72 -3 26.7
07:55 1013 29.91 842 24.86 1.5 34.7 73 -2.8 26.9
08:00 1013 29.91 842 24.86 1.4 34.6 73 -2.8 26.9
08:05 1013 29.91 842 24.86 1.4 34.5 73 -2.9 26.7
08:10 1013 29.91 842 24.86 1.5 34.7 71 -3.1 26.4
08:15 1013 29.91 842 24.86 1.6 34.9 71 -3 26.5
08:20 1013 29.91 842 24.86 1.7 35 68 -3.6 25.5
08:25 1013 29.91 843 24.89 1.7 35.1 69 -3.3 26.1
08:30 1013 29.91 843 24.89 1.7 35 71 -3.1 26.4
08:35 1013 29.91 843 24.89 1.6 34.8 69 -3.5 25.7
08:40 1013 29.91 843 24.89 1.7 35.1 69 -3.3 26.1
08:45 1013 29.91 843 24.89 1.8 35.3 65 -4 24.8
08:50 1013 29.91 843 24.89 2 35.6 66 -3.6 25.6
08:55 1013 29.91 843 24.89 1.9 35.5 69 -3.2 26.2
09:00 1013 29.91 843 24.89 1.9 35.4 69 -3.1 26.4
09:05 1013 29.91 843 24.89 2 35.6 68 -3.3 26
09:10 1013 29.91 843 24.89 2.2 35.9 67 -3.3 26
09:15 1013 29.91 842 24.86 2.5 36.5 64 -3.6 25.4
09:20 1013 29.91 842 24.86 2.9 37.2 61 -3.8 25.1
09:25 1013 29.91 842 24.86 3.1 37.6 59 -4.2 24.5
09:30 1013 29.91 842 24.86 3.2 37.8 58 -4.2 24.4
09:35 1013 29.91 842 24.86 3.3 38 56 -4.7 23.5
09:40 1013 29.91 842 24.86 3.5 38.3 57 -4.3 24.2
09:45 1013 29.91 842 24.86 3.6 38.6 57 -4.2 24.5
09:50 1013 29.91 842 24.86 3.8 38.8 57 -4 24.8
09:55 1013 29.91 842 24.86 3.9 39.1 56 -4.1 24.5
10:00 1013 29.91 842 24.86 4.1 39.4 54 -4.5 23.9
10:05 1013 29.91 843 24.89 4.2 39.6 55 -4 24.8
10:10 1013 29.91 843 24.89 4.4 39.8 54 -4.2 24.4
10:15 1013 29.91 842 24.86 4.6 40.3 53 -4.2 24.4
10:20 1013 29.91 843 24.89 4.9 40.8 54 -3.6 25.5
10:25 1013 29.91 843 24.89 5.1 41.2 51 -4.1 24.7
10:30 1013 29.91 843 24.89 5.3 41.6 47 -5.1 22.9
10:35 1013 29.91 843 24.89 5.5 41.9 47 -5 23.1
10:40 1013 29.91 843 24.89 5.2 41.4 49 -4.6 23.7
10:45 1013 29.91 842 24.86 5.8 42.4 42 -6.1 21
10:50 1013 29.91 842 24.86 6.5 43.7 42 -5.5 22.2
10:55 1013 29.91 842 24.86 6.8 44.3 39 -6.3 20.7
11:00 1013 29.91 842 24.86 6.9 44.5 38 -6.4 20.5
11:05 1013 29.91 842 24.86 7.2 45 36 -6.9 19.5
11:10 1013 29.91 842 24.86 7 44.6 34 -7.9 17.7
11:15 1013 29.91 842 24.86 6.5 43.7 35 -7.9 17.8
11:20 1013 29.91 842 24.86 7.1 44.7 36 -7.1 19.3
11:25 1013 29.91 842 24.86 7.8 46 34 -7.2 19
11:30 1013 29.91 842 24.86 8.3 46.9 33 -7.2 19.1
11:35 1013 29.91 842 24.86 8.2 46.8 32 -7.6 18.4
11:40 1013 29.91 842 24.86 8.1 46.6 33 -7 19.4
11:45 1013 29.91 842 24.86 7.7 45.8 34 -7.1 19.3
11:50 1013 29.91 842 24.86 7.3 45.1 36 -6.9 19.6
11:55 1013 29.91 842 24.86 6.8 44.3 36 -7 19.3
12:00 1013 29.91 842 24.86 6.7 44 35 -7.6 18.4
12:05 1013 29.91 842 24.86 6.9 44.3 36 -7.1 19.2
12:10 1013 29.91 842 24.86 7 44.6 35 -7.5 18.5
12:15 1013 29.91 842 24.86 7.3 45.1 32 -8.2 17.3
12:20 1013 29.91 842 24.86 7.3 45.1 31 -8.7 16.3
12:25 1013 29.91 842 24.86 8 46.4 31 -8.2 17.3
12:30 1013 29.91 842 24.86 8.5 47.3 31 -7.8 18
12:35 1013 29.91 842 24.86 8 46.3 33 -7.4 18.6
12:40 1013 29.91 842 24.86 7.7 45.9 32 -7.9 17.8
12:45 1013 29.91 842 24.86 7.5 45.6 34 -7.4 18.8
12:50 1013 29.91 842 24.86 7.7 45.9 33 -7.6 18.3
12:55 1013 29.91 842 24.86 7.9 46.2 34 -7.1 19.2
13:00 1013 29.91 842 24.86 7.9 46.1 34 -6.9 19.6
13:05 1013 29.91 842 24.86 7.6 45.7 35 -7 19.4
13:10 1013 29.91 842 24.86 7.6 45.6 35 -7 19.4
13:15 1013 29.91 842 24.86 7.4 45.3 36 -6.8 19.7
13:20 1013 29.91 842 24.86 7.4 45.4 36 -6.6 20.2
13:25 1013 29.91 842 24.86 7.1 44.8 38 -6.2 20.8
13:30 1013 29.91 842 24.86 6.9 44.5 38 -6.4 20.5
13:35 1013 29.91 842 24.86 7 44.7 39 -6.1 21
13:40 1013 29.91 842 24.86 7 44.5 40 -5.7 21.8
13:45 1013 29.91 843 24.89 6.7 44.1 41 -5.7 21.8
13:50 1014 29.94 843 24.89 6.7 44 43 -5.1 22.8
13:55 1014 29.94 843 24.89 6.5 43.8 45 -4.5 23.9
14:00 1014 29.94 843 24.89 6.3 43.4 49 -3.6 25.6
14:05 1014 29.94 843 24.89 6.1 43 50 -3.5 25.8
14:10 1014 29.94 843 24.89 6 42.8 50 -3.7 25.4
14:15 1014 29.94 843 24.89 6.3 43.4 49 -3.7 25.3
14:20 1014 29.94 843 24.89 6.6 44 46 -4 24.7
14:25 1014 29.94 843 24.89 7 44.6 43 -4.7 23.6
14:30 1014 29.94 843 24.89 7.4 45.2 42 -4.8 23.4
14:35 1014 29.94 843 24.89 7.8 46 35 -6.8 19.8
14:40 1014 29.94 843 24.89 8.5 47.2 33 -6.8 19.8
14:45 1014 29.94 843 24.89 8.5 47.2 34 -6.7 20
14:50 1014 29.94 843 24.89 8.6 47.6 33 -6.6 20.2
14:55 1014 29.94 843 24.89 8.2 46.8 36 -6 21.2
15:00 1014 29.94 844 24.92 8.1 46.7 34 -6.6 20.1
15:05 1014 29.94 844 24.92 7.9 46.2 35 -6.5 20.3
15:10 1014 29.94 844 24.92 7.5 45.4 36 -6.6 20.1
15:15 1015 29.97 844 24.92 7 44.6 39 -6 21.1
15:20 1015 29.97 844 24.92 6.7 44.1 39 -6.2 20.9
15:25 1015 29.97 844 24.92 6.4 43.6 40 -6.3 20.6
15:30 1015 29.97 844 24.92 6.5 43.7 40 -6.1 20.9
15:35 1015 29.97 844 24.92 6.3 43.4 41 -6 21.2
15:40 1015 29.97 845 24.95 6.2 43.2 48 -4 24.8
15:45 1016 30 845 24.95 4.3 39.8 68 -1 30.2
15:50 1016 30 846 24.98 2.4 36.3 78 -1.1 30.1
15:55 1017 30.03 846 24.98 1.3 34.4 86 -0.8 30.6
16:00 1017 30.03 846 24.98 0.6 33.1 91 -0.7 30.7
16:05 1017 30.03 846 24.98 0.3 32.6 93 -0.7 30.7
16:10 1017 30.03 846 24.98 0.2 32.4 93 -0.8 30.6
16:15 1017 30.03 846 24.98 0.1 32.2 94 -0.7 30.7
16:20 1017 30.03 847 25.01 -0 32 95 -0.7 30.8
16:25 1018 30.06 847 25.01 -0.1 31.9 96 -0.6 30.9
16:30 1018 30.06 847 25.01 -0 31.9 96 -0.6 30.9
16:35 1018 30.06 847 25.01 -0.1 31.9 96 -0.6 31
16:40 1018 30.06 847 25.01 -0 32 97 -0.5 31.1
16:45 1018 30.06 847 25.01 0 32.1 96 -0.5 31.2
16:50 1018 30.06 848 25.04 0.1 32.2 96 -0.5 31.1
16:55 1019 30.09 848 25.04 0.2 32.3 95 -0.6 31
17:00 1019 30.09 848 25.04 0.1 32.2 94 -0.8 30.6
17:05 1019 30.09 848 25.04 -0.2 31.6 95 -0.9 30.4
17:10 1019 30.09 848 25.04 -0.1 31.8 94 -1 30.3
17:15 1019 30.09 848 25.04 0 32 94 -0.8 30.5
17:20 1019 30.09 848 25.04 -0 32 93 -1 30.3
17:25 1019 30.09 848 25.04 0.1 32.1 93 -0.9 30.4
17:30 1019 30.09 848 25.04 0.1 32.2 92 -1 30.2
17:35 1019 30.09 848 25.04 0.2 32.3 91 -1.1 30
17:40 1019 30.09 848 25.04 0.2 32.4 89 -1.3 29.7
17:45 1019 30.09 848 25.04 0.4 32.7 90 -1.1 30
17:50 1019 30.09 848 25.04 0.5 32.9 88 -1.2 29.9
17:55 1019 30.09 848 25.04 0.3 32.6 89 -1.3 29.7
18:00 1019 30.09 848 25.04 0.3 32.5 88 -1.5 29.3
18:05 1019 30.09 848 25.04 0.4 32.7 86 -1.7 28.9
18:10 1019 30.09 848 25.04 0.5 32.9 84 -1.9 28.6
18:15 1019 30.09 848 25.04 0.5 32.9 83 -2 28.4
18:20 1019 30.09 848 25.04 0.5 32.9 82 -2.3 27.8
18:25 1019 30.09 848 25.04 0.4 32.7 81 -2.5 27.5
18:30 1019 30.09 848 25.04 0.3 32.5 79 -3 26.7
18:35 1019 30.09 848 25.04 0.4 32.7 79 -2.8 27
18:40 1019 30.09 848 25.04 0.1 32.1 81 -2.9 26.8
18:45 1019 30.09 849 25.07 -0.2 31.6 82 -2.9 26.8
18:50 1019 30.09 848 25.04 -0.5 31.1 83 -3 26.6
18:55 1019 30.09 848 25.04 -0.7 30.8 84 -3 26.6
19:00 1019 30.09 849 25.07 -0.5 31.1 84 -2.9 26.8
19:05 1019 30.09 849 25.07 -0.6 30.8 86 -2.7 27.2
19:10 1019 30.09 849 25.07 -1 30.2 89 -2.6 27.3
19:15 1019 30.09 849 25.07 -0.9 30.3 87 -2.9 26.8
19:20 1019 30.09 849 25.07 -1 30.3 85 -3.2 26.3
19:25 1019 30.09 849 25.07 -1 30.2 86 -3 26.6
19:30 1020 30.12 849 25.07 -1 30.3 86 -3 26.6
19:35 1020 30.12 849 25.07 -0.9 30.4 85 -3.1 26.5
19:40 1020 30.12 849 25.07 -0.8 30.5 85 -3 26.7
19:45 1020 30.12 849 25.07 -0.7 30.8 84 -3.1 26.5
19:50 1020 30.12 849 25.07 -0.5 31.2 81 -3.3 26
19:55 1020 30.12 849 25.07 -0.2 31.7 81 -3 26.5
20:00 1020 30.12 849 25.07 -0.2 31.6 81 -3.2 26.3
20:05 1020 30.12 849 25.07 -0.2 31.7 79 -3.4 25.9
20:10 1020 30.12 849 25.07 -0.4 31.2 84 -2.8 26.9
20:15 1020 30.12 849 25.07 -1.4 29.5 88 -3.2 26.2
20:20 1020 30.12 849 25.07 -1.7 29 86 -3.8 25.2
20:25 1020 30.12 849 25.07 -1.4 29.4 85 -3.7 25.4
20:30 1020 30.12 849 25.07 -1.8 28.8 87 -3.7 25.3
20:35 1020 30.12 849 25.07 -2 28.4 87 -3.9 24.9
20:40 1020 30.12 849 25.07 -1.9 28.5 81 -4.8 23.4
20:45 1020 30.12 849 25.07 -1.5 29.3 79 -4.6 23.7
20:50 1020 30.12 850 25.1 -1.4 29.4 84 -3.8 25.1
20:55 1021 30.15 850 25.1 -2 28.4 85 -4.2 24.4
21:00 1021 30.15 850 25.1 -2 28.3 82 -4.7 23.6
21:05 1021 30.15 850 25.1 -1.5 29.3 83 -4.1 24.7
21:10 1021 30.15 850 25.1 -1.8 28.7 82 -4.5 23.9
21:15 1021 30.15 850 25.1 -2.2 28.1 83 -4.7 23.6
21:20 1021 30.15 850 25.1 -1.9 28.5 82 -4.7 23.6
21:25 1021 30.15 850 25.1 -1.9 28.5 82 -4.7 23.6
21:30 1021 30.15 850 25.1 -1.9 28.6 82 -4.6 23.8
21:35 1021 30.15 850 25.1 -1.8 28.8 82 -4.5 23.9
21:40 1021 30.15 850 25.1 -1.6 29.2 80 -4.6 23.7
21:45 1021 30.15 850 25.1 -1.5 29.3 80 -4.5 23.9
21:50 1021 30.15 850 25.1 -1.6 29.2 81 -4.4 24
21:55 1021 30.15 850 25.1 -1.7 28.9 81 -4.6 23.7
22:00 1021 30.15 850 25.1 -1.7 28.9 81 -4.6 23.7
22:05 1021 30.15 850 25.1 -1.7 28.9 81 -4.6 23.7
22:10 1021 30.15 850 25.1 -2 28.4 82 -4.7 23.5
22:15 1021 30.15 850 25.1 -2.2 28 83 -4.8 23.3
22:20 1021 30.15 850 25.1 -2.4 27.7 83 -4.9 23.3
22:25 1021 30.15 850 25.1 -2.6 27.4 85 -4.8 23.4
22:30 1021 30.15 850 25.1 -2.6 27.4 84 -5 23.1
22:35 1021 30.15 850 25.1 -2.4 27.6 84 -4.8 23.3
22:40 1021 30.15 850 25.1 -2.4 27.6 83 -4.9 23.3
22:45 1021 30.15 850 25.1 -2.4 27.6 83 -4.9 23.2
22:50 1021 30.15 850 25.1 -2.5 27.5 84 -4.9 23.3
22:55 1021 30.15 851 25.13 -2.4 27.6 83 -4.9 23.1
23:00 1021 30.15 851 25.13 -2.4 27.6 83 -5 23.1
23:05 1021 30.15 850 25.1 -2.4 27.6 82 -5 23
23:10 1021 30.15 850 25.1 -2.3 27.9 81 -5.1 22.8
23:15 1021 30.15 850 25.1 -2.3 27.8 81 -5.1 22.7
23:20 1021 30.15 850 25.1 -2.4 27.6 81 -5.3 22.4
23:25 1021 30.15 850 25.1 -2.3 27.9 81 -5.1 22.8
23:30 1021 30.15 850 25.1 -2.2 28.1 80 -5.2 22.7
23:35 1021 30.15 851 25.13 -2.3 27.9 80 -5.3 22.5
23:40 1021 30.15 851 25.13 -2.4 27.6 81 -5.3 22.4
23:45 1021 30.15 851 25.13 -2.6 27.3 82 -5.3 22.5
23:50 1021 30.15 851 25.13 -2.9 26.8 83 -5.3 22.4
23:55 1021 30.15 851 25.13 -3 26.6 82 -5.6 21.9
24:00 1021 30.15 851 25.13 -2.8 26.9 81 -5.6 21.8